Asbury, New Jersey
Current Conditions -  °F | °C
As of 11:53 AM on Friday 24 Oct 2014 (Local Time) from KSMQ Reporting Station
Clear Clear  
Wind Chill: 63°   Ceiling: Unl
Heat Index: 63°   Visibility: 10mi
Dew Point: 43°   Wind: 9mph
Humidity: 48%   Direction: 290°WNW
Pressure: 29.82"   Gusts: 17mph
Location:  40.7°N, 75.01°W
Report Text: KSMQ 241553Z AUTO 29008G15KT 10SM CLR 17/06 A2982 RMK AO2 SLP096 T01720061
Loading
Personal Weather Stations






























Interactive Weather Map
Tropical Storm Tracking
New forecast layout! Learn more

10-Day Weather Forecast

Advertisements
Track Severe Weather on mobile